sensor_id;sensor_type;location;lat;lon;timestamp;pressure;altitude;pressure_sealevel;temperature;humidity
51526;BME280;37611;51.794;21.590;2023-03-26T00:03:23;98733.01;;;5.69;100.00
51526;BME280;37611;51.794;21.590;2023-03-26T00:07:24;98731.70;;;5.69;100.00
51526;BME280;37611;51.794;21.590;2023-03-26T00:11:29;98734.55;;;5.68;100.00
51526;BME280;37611;51.794;21.590;2023-03-26T00:15:32;98732.15;;;5.69;100.00
51526;BME280;37611;51.794;21.590;2023-03-26T00:19:34;98729.08;;;5.72;100.00
51526;BME280;37611;51.794;21.590;2023-03-26T00:23:36;98730.20;;;5.77;100.00
51526;BME280;37611;51.794;21.590;2023-03-26T00:27:39;98730.36;;;5.82;100.00
51526;BME280;37611;51.794;21.590;2023-03-26T00:31:42;98729.05;;;5.86;100.00
51526;BME280;37611;51.794;21.590;2023-03-26T00:35:51;98726.77;;;5.86;100.00
51526;BME280;37611;51.794;21.590;2023-03-26T00:39:53;98726.04;;;5.85;100.00
51526;BME280;37611;51.794;21.590;2023-03-26T00:43:57;98724.22;;;5.81;100.00
51526;BME280;37611;51.794;21.590;2023-03-26T00:47:59;98720.03;;;5.77;100.00
51526;BME280;37611;51.794;21.590;2023-03-26T00:52:01;98716.11;;;5.72;100.00
51526;BME280;37611;51.794;21.590;2023-03-26T00:56:05;98716.83;;;5.66;100.00
51526;BME280;37611;51.794;21.590;2023-03-26T01:00:11;98714.48;;;5.63;100.00
51526;BME280;37611;51.794;21.590;2023-03-26T01:04:25;98711.46;;;5.59;100.00
51526;BME280;37611;51.794;21.590;2023-03-26T01:08:34;98708.95;;;5.53;100.00
51526;BME280;37611;51.794;21.590;2023-03-26T01:12:37;98709.17;;;5.47;100.00
51526;BME280;37611;51.794;21.590;2023-03-26T01:17:00;98702.87;;;5.46;100.00
51526;BME280;37611;51.794;21.590;2023-03-26T01:21:02;98705.23;;;5.43;100.00
51526;BME280;37611;51.794;21.590;2023-03-26T01:25:06;98706.11;;;5.43;100.00
51526;BME280;37611;51.794;21.590;2023-03-26T01:29:19;98707.54;;;5.39;100.00
51526;BME280;37611;51.794;21.590;2023-03-26T01:33:51;98704.54;;;5.37;100.00
51526;BME280;37611;51.794;21.590;2023-03-26T01:42:15;98698.13;;;5.37;100.00
51526;BME280;37611;51.794;21.590;2023-03-26T01:46:19;98702.73;;;5.36;100.00
51526;BME280;37611;51.794;21.590;2023-03-26T01:50:22;98695.58;;;5.37;100.00
51526;BME280;37611;51.794;21.590;2023-03-26T01:54:27;98691.03;;;5.39;100.00
51526;BME280;37611;51.794;21.590;2023-03-26T02:03:29;98681.48;;;5.46;100.00
51526;BME280;37611;51.794;21.590;2023-03-26T02:11:39;98677.83;;;5.52;100.00
51526;BME280;37611;51.794;21.590;2023-03-26T02:15:53;98674.14;;;5.52;100.00
51526;BME280;37611;51.794;21.590;2023-03-26T02:19:55;98674.80;;;5.49;100.00
51526;BME280;37611;51.794;21.590;2023-03-26T02:23:57;98672.39;;;5.43;100.00
51526;BME280;37611;51.794;21.590;2023-03-26T02:28:03;98669.11;;;5.41;100.00
51526;BME280;37611;51.794;21.590;2023-03-26T02:32:06;98668.54;;;5.36;100.00
51526;BME280;37611;51.794;21.590;2023-03-26T02:36:09;98670.70;;;5.31;100.00
51526;BME280;37611;51.794;21.590;2023-03-26T02:40:12;98666.45;;;5.28;100.00
51526;BME280;37611;51.794;21.590;2023-03-26T02:44:14;98670.02;;;5.27;100.00
51526;BME280;37611;51.794;21.590;2023-03-26T02:48:16;98671.67;;;5.26;100.00
51526;BME280;37611;51.794;21.590;2023-03-26T02:52:18;98672.34;;;5.21;100.00
51526;BME280;37611;51.794;21.590;2023-03-26T02:56:20;98673.38;;;5.17;100.00
51526;BME280;37611;51.794;21.590;2023-03-26T03:00:21;98668.29;;;5.14;100.00
51526;BME280;37611;51.794;21.590;2023-03-26T03:04:23;98672.45;;;5.11;100.00
51526;BME280;37611;51.794;21.590;2023-03-26T03:08:26;98673.23;;;5.10;100.00
51526;BME280;37611;51.794;21.590;2023-03-26T03:12:28;98677.64;;;5.12;100.00
51526;BME280;37611;51.794;21.590;2023-03-26T03:16:30;98677.91;;;5.13;100.00
51526;BME280;37611;51.794;21.590;2023-03-26T03:20:32;98678.04;;;5.14;100.00
51526;BME280;37611;51.794;21.590;2023-03-26T03:24:35;98681.69;;;5.14;100.00
51526;BME280;37611;51.794;21.590;2023-03-26T03:28:37;98683.66;;;5.15;100.00
51526;BME280;37611;51.794;21.590;2023-03-26T03:32:38;98684.58;;;5.14;100.00
51526;BME280;37611;51.794;21.590;2023-03-26T03:36:40;98684.29;;;5.16;100.00
51526;BME280;37611;51.794;21.590;2023-03-26T03:40:42;98687.43;;;5.19;100.00
51526;BME280;37611;51.794;21.590;2023-03-26T03:44:45;98693.02;;;5.22;100.00
51526;BME280;37611;51.794;21.590;2023-03-26T03:48:46;98693.79;;;5.25;100.00
51526;BME280;37611;51.794;21.590;2023-03-26T03:52:50;98690.69;;;5.27;100.00
51526;BME280;37611;51.794;21.590;2023-03-26T03:56:51;98692.81;;;5.33;100.00
51526;BME280;37611;51.794;21.590;2023-03-26T04:00:54;98694.16;;;5.43;100.00
51526;BME280;37611;51.794;21.590;2023-03-26T04:05:02;98691.16;;;5.48;100.00
51526;BME280;37611;51.794;21.590;2023-03-26T04:09:04;98695.30;;;5.52;100.00
51526;BME280;37611;51.794;21.590;2023-03-26T04:13:06;98690.97;;;5.55;100.00
51526;BME280;37611;51.794;21.590;2023-03-26T04:17:08;98687.48;;;5.59;100.00
51526;BME280;37611;51.794;21.590;2023-03-26T04:21:09;98689.05;;;5.61;100.00
51526;BME280;37611;51.794;21.590;2023-03-26T04:25:12;98685.77;;;5.62;100.00
51526;BME280;37611;51.794;21.590;2023-03-26T04:29:16;98678.30;;;5.60;100.00
51526;BME280;37611;51.794;21.590;2023-03-26T04:33:22;98678.72;;;5.61;100.00
51526;BME280;37611;51.794;21.590;2023-03-26T04:37:34;98682.13;;;5.64;100.00
51526;BME280;37611;51.794;21.590;2023-03-26T04:41:40;98679.36;;;5.65;100.00
51526;BME280;37611;51.794;21.590;2023-03-26T04:45:43;98677.53;;;5.67;100.00
51526;BME280;37611;51.794;21.590;2023-03-26T04:49:46;98671.92;;;5.67;100.00
51526;BME280;37611;51.794;21.590;2023-03-26T04:53:58;98669.66;;;5.65;100.00
51526;BME280;37611;51.794;21.590;2023-03-26T04:58:00;98670.38;;;5.65;100.00
51526;BME280;37611;51.794;21.590;2023-03-26T05:02:06;98665.61;;;5.66;100.00
51526;BME280;37611;51.794;21.590;2023-03-26T05:06:09;98663.75;;;5.67;100.00
51526;BME280;37611;51.794;21.590;2023-03-26T05:10:13;98662.18;;;5.71;100.00
51526;BME280;37611;51.794;21.590;2023-03-26T05:14:15;98665.39;;;5.73;100.00
51526;BME280;37611;51.794;21.590;2023-03-26T05:18:17;98663.58;;;5.74;100.00
51526;BME280;37611;51.794;21.590;2023-03-26T05:22:19;98660.40;;;5.78;100.00
51526;BME280;37611;51.794;21.590;2023-03-26T05:26:20;98659.20;;;5.78;100.00
51526;BME280;37611;51.794;21.590;2023-03-26T05:30:22;98660.03;;;5.82;100.00
51526;BME280;37611;51.794;21.590;2023-03-26T05:34:24;98661.73;;;5.83;100.00
51526;BME280;37611;51.794;21.590;2023-03-26T05:38:28;98663.53;;;5.86;100.00
51526;BME280;37611;51.794;21.590;2023-03-26T05:42:30;98657.16;;;5.95;100.00
51526;BME280;37611;51.794;21.590;2023-03-26T05:46:32;98658.74;;;6.32;100.00
51526;BME280;37611;51.794;21.590;2023-03-26T05:50:34;98657.42;;;6.67;100.00
51526;BME280;37611;51.794;21.590;2023-03-26T05:54:36;98661.91;;;6.79;100.00
51526;BME280;37611;51.794;21.590;2023-03-26T05:58:37;98655.27;;;6.71;100.00
51526;BME280;37611;51.794;21.590;2023-03-26T06:02:39;98657.86;;;6.76;100.00
51526;BME280;37611;51.794;21.590;2023-03-26T06:06:43;98660.70;;;6.77;100.00
51526;BME280;37611;51.794;21.590;2023-03-26T06:10:47;98661.09;;;6.77;100.00
51526;BME280;37611;51.794;21.590;2023-03-26T06:14:51;98658.52;;;6.76;100.00
51526;BME280;37611;51.794;21.590;2023-03-26T06:18:52;98660.55;;;6.86;100.00
51526;BME280;37611;51.794;21.590;2023-03-26T06:22:54;98659.58;;;7.04;100.00
51526;BME280;37611;51.794;21.590;2023-03-26T06:26:56;98663.52;;;7.16;100.00
51526;BME280;37611;51.794;21.590;2023-03-26T06:30:59;98666.52;;;7.22;100.00
51526;BME280;37611;51.794;21.590;2023-03-26T06:35:02;98662.50;;;7.30;100.00
51526;BME280;37611;51.794;21.590;2023-03-26T06:39:03;98663.63;;;7.38;100.00
51526;BME280;37611;51.794;21.590;2023-03-26T06:43:05;98664.25;;;7.47;100.00
51526;BME280;37611;51.794;21.590;2023-03-26T06:47:07;98666.19;;;7.59;100.00
51526;BME280;37611;51.794;21.590;2023-03-26T06:51:09;98663.92;;;7.69;100.00
51526;BME280;37611;51.794;21.590;2023-03-26T06:55:13;98662.83;;;7.74;100.00
51526;BME280;37611;51.794;21.590;2023-03-26T06:59:14;98665.98;;;7.84;100.00
51526;BME280;37611;51.794;21.590;2023-03-26T07:03:16;98667.08;;;7.86;100.00
51526;BME280;37611;51.794;21.590;2023-03-26T07:07:18;98661.95;;;7.87;100.00
51526;BME280;37611;51.794;21.590;2023-03-26T07:11:22;98667.20;;;7.90;100.00
51526;BME280;37611;51.794;21.590;2023-03-26T07:15:27;98668.45;;;7.90;100.00
51526;BME280;37611;51.794;21.590;2023-03-26T07:19:29;98676.90;;;7.81;100.00
51526;BME280;37611;51.794;21.590;2023-03-26T07:23:31;98677.97;;;7.62;100.00
51526;BME280;37611;51.794;21.590;2023-03-26T07:48:46;98664.23;;;7.88;100.00
51526;BME280;37611;51.794;21.590;2023-03-26T07:52:51;98659.49;;;8.19;100.00
51526;BME280;37611;51.794;21.590;2023-03-26T07:57:16;98658.80;;;8.51;100.00
51526;BME280;37611;51.794;21.590;2023-03-26T08:05:30;98656.59;;;8.97;100.00
51526;BME280;37611;51.794;21.590;2023-03-26T08:09:38;98654.57;;;9.05;100.00
51526;BME280;37611;51.794;21.590;2023-03-26T08:22:40;98651.89;;;9.02;100.00
51526;BME280;37611;51.794;21.590;2023-03-26T08:27:11;98649.68;;;9.08;100.00
51526;BME280;37611;51.794;21.590;2023-03-26T08:31:17;98646.83;;;9.16;100.00
51526;BME280;37611;51.794;21.590;2023-03-26T08:35:25;98644.33;;;9.15;100.00
51526;BME280;37611;51.794;21.590;2023-03-26T08:39:27;98646.35;;;9.08;100.00
51526;BME280;37611;51.794;21.590;2023-03-26T08:48:25;98641.57;;;9.14;100.00
51526;BME280;37611;51.794;21.590;2023-03-26T09:01:42;98633.79;;;10.11;96.38
51526;BME280;37611;51.794;21.590;2023-03-26T09:15:24;98626.73;;;9.95;94.86
51526;BME280;37611;51.794;21.590;2023-03-26T09:37:33;98616.96;;;10.11;92.29
51526;BME280;37611;51.794;21.590;2023-03-26T09:41:57;98612.27;;;10.50;91.21
51526;BME280;37611;51.794;21.590;2023-03-26T09:46:31;98606.00;;;10.89;89.85
51526;BME280;37611;51.794;21.590;2023-03-26T10:04:32;98604.15;;;10.60;86.28
51526;BME280;37611;51.794;21.590;2023-03-26T10:12:51;98599.68;;;10.82;83.25
51526;BME280;37611;51.794;21.590;2023-03-26T10:21:34;98587.93;;;11.08;83.68
51526;BME280;37611;51.794;21.590;2023-03-26T10:30:36;98581.60;;;11.82;80.71
51526;BME280;37611;51.794;21.590;2023-03-26T10:39:02;98576.80;;;11.99;79.07
51526;BME280;37611;51.794;21.590;2023-03-26T10:55:53;98564.23;;;12.03;75.95
51526;BME280;37611;51.794;21.590;2023-03-26T11:00:00;98565.19;;;11.84;75.85
51526;BME280;37611;51.794;21.590;2023-03-26T11:08:22;98559.48;;;12.02;76.77
51526;BME280;37611;51.794;21.590;2023-03-26T11:12:43;98567.92;;;12.04;76.40
51526;BME280;37611;51.794;21.590;2023-03-26T11:17:03;98565.55;;;11.86;74.34
51526;BME280;37611;51.794;21.590;2023-03-26T11:33:34;98561.71;;;12.64;71.57
51526;BME280;37611;51.794;21.590;2023-03-26T11:37:40;98562.16;;;12.49;71.48
51526;BME280;37611;51.794;21.590;2023-03-26T11:41:43;98564.66;;;12.20;72.15
51526;BME280;37611;51.794;21.590;2023-03-26T11:45:47;98566.87;;;11.95;72.51
51526;BME280;37611;51.794;21.590;2023-03-26T11:49:52;98568.47;;;11.85;72.84
51526;BME280;37611;51.794;21.590;2023-03-26T11:53:56;98567.60;;;11.69;72.21
51526;BME280;37611;51.794;21.590;2023-03-26T11:57:59;98563.70;;;11.72;72.87
51526;BME280;37611;51.794;21.590;2023-03-26T12:06:21;98567.59;;;11.66;71.81
51526;BME280;37611;51.794;21.590;2023-03-26T12:10:38;98566.23;;;11.57;72.95
51526;BME280;37611;51.794;21.590;2023-03-26T12:14:43;98561.59;;;11.67;73.44
51526;BME280;37611;51.794;21.590;2023-03-26T12:18:57;98561.83;;;11.79;72.79
51526;BME280;37611;51.794;21.590;2023-03-26T12:23:02;98557.91;;;11.85;72.87
51526;BME280;37611;51.794;21.590;2023-03-26T12:31:21;98550.17;;;11.89;72.99
51526;BME280;37611;51.794;21.590;2023-03-26T12:35:24;98545.55;;;11.91;72.47
51526;BME280;37611;51.794;21.590;2023-03-26T12:39:40;98544.17;;;11.90;73.01
51526;BME280;37611;51.794;21.590;2023-03-26T12:47:44;98540.75;;;12.19;73.65
51526;BME280;37611;51.794;21.590;2023-03-26T12:51:57;98538.98;;;12.34;73.39
51526;BME280;37611;51.794;21.590;2023-03-26T13:14:27;98542.88;;;11.89;74.42
51526;BME280;37611;51.794;21.590;2023-03-26T13:18:45;98542.39;;;11.61;76.03
51526;BME280;37611;51.794;21.590;2023-03-26T13:31:33;98560.67;;;10.60;84.55
51526;BME280;37611;51.794;21.590;2023-03-26T13:48:54;98573.58;;;9.09;94.63
51526;BME280;37611;51.794;21.590;2023-03-26T13:53:23;98569.52;;;9.16;96.42
51526;BME280;37611;51.794;21.590;2023-03-26T13:57:40;98566.55;;;9.26;95.77
51526;BME280;37611;51.794;21.590;2023-03-26T14:01:52;98571.60;;;9.35;96.35
51526;BME280;37611;51.794;21.590;2023-03-26T14:05:59;98564.98;;;9.45;97.49
51526;BME280;37611;51.794;21.590;2023-03-26T14:10:15;98555.16;;;9.65;97.79
51526;BME280;37611;51.794;21.590;2023-03-26T14:53:40;98563.10;;;8.74;100.00
51526;BME280;37611;51.794;21.590;2023-03-26T15:06:22;98557.55;;;9.15;100.00
51526;BME280;37611;51.794;21.590;2023-03-26T15:29:13;98577.48;;;9.14;100.00
51526;BME280;37611;51.794;21.590;2023-03-26T15:50:42;98574.23;;;8.94;100.00
51526;BME280;37611;51.794;21.590;2023-03-26T15:54:56;98575.60;;;8.96;100.00
51526;BME280;37611;51.794;21.590;2023-03-26T16:03:26;98584.55;;;8.94;100.00
51526;BME280;37611;51.794;21.590;2023-03-26T16:20:32;98583.69;;;8.77;100.00
51526;BME280;37611;51.794;21.590;2023-03-26T16:24:39;98586.20;;;8.75;100.00
51526;BME280;37611;51.794;21.590;2023-03-26T16:32:51;98588.54;;;8.69;100.00
51526;BME280;37611;51.794;21.590;2023-03-26T16:36:58;98587.64;;;8.61;100.00
51526;BME280;37611;51.794;21.590;2023-03-26T16:41:04;98588.58;;;8.54;100.00
51526;BME280;37611;51.794;21.590;2023-03-26T16:50:00;98590.33;;;8.28;100.00
51526;BME280;37611;51.794;21.590;2023-03-26T16:54:16;98589.30;;;8.17;100.00
51526;BME280;37611;51.794;21.590;2023-03-26T16:58:34;98591.12;;;8.15;100.00
51526;BME280;37611;51.794;21.590;2023-03-26T17:06:56;98592.73;;;8.05;100.00
51526;BME280;37611;51.794;21.590;2023-03-26T17:11:27;98595.09;;;7.99;100.00
51526;BME280;37611;51.794;21.590;2023-03-26T17:16:20;98597.52;;;7.96;100.00
51526;BME280;37611;51.794;21.590;2023-03-26T17:29:25;98601.81;;;7.81;100.00
51526;BME280;37611;51.794;21.590;2023-03-26T17:37:42;98612.23;;;7.56;100.00
51526;BME280;37611;51.794;21.590;2023-03-26T17:45:51;98613.95;;;7.21;100.00
51526;BME280;37611;51.794;21.590;2023-03-26T17:49:58;98609.73;;;7.08;100.00
51526;BME280;37611;51.794;21.590;2023-03-26T17:54:01;98608.48;;;7.00;100.00
51526;BME280;37611;51.794;21.590;2023-03-26T17:58:27;98613.45;;;6.93;100.00
51526;BME280;37611;51.794;21.590;2023-03-26T18:02:37;98612.79;;;6.89;100.00
51526;BME280;37611;51.794;21.590;2023-03-26T18:11:48;98611.36;;;6.91;100.00
51526;BME280;37611;51.794;21.590;2023-03-26T18:16:19;98610.86;;;6.91;100.00
51526;BME280;37611;51.794;21.590;2023-03-26T18:20:25;98608.97;;;6.91;100.00
51526;BME280;37611;51.794;21.590;2023-03-26T18:24:31;98610.16;;;6.84;100.00
51526;BME280;37611;51.794;21.590;2023-03-26T18:28:40;98612.77;;;6.76;100.00
51526;BME280;37611;51.794;21.590;2023-03-26T18:33:02;98608.68;;;6.67;100.00
51526;BME280;37611;51.794;21.590;2023-03-26T18:37:15;98605.42;;;6.58;100.00
51526;BME280;37611;51.794;21.590;2023-03-26T18:41:26;98604.90;;;6.48;100.00
51526;BME280;37611;51.794;21.590;2023-03-26T18:45:33;98603.58;;;6.37;100.00
51526;BME280;37611;51.794;21.590;2023-03-26T18:49:36;98599.08;;;6.32;100.00
51526;BME280;37611;51.794;21.590;2023-03-26T18:53:50;98596.42;;;6.31;100.00
51526;BME280;37611;51.794;21.590;2023-03-26T18:57:53;98592.97;;;6.31;100.00
51526;BME280;37611;51.794;21.590;2023-03-26T19:01:55;98592.14;;;6.32;100.00
51526;BME280;37611;51.794;21.590;2023-03-26T19:05:58;98593.37;;;6.34;100.00
51526;BME280;37611;51.794;21.590;2023-03-26T19:10:03;98591.31;;;6.35;100.00
51526;BME280;37611;51.794;21.590;2023-03-26T19:14:13;98588.68;;;6.37;100.00
51526;BME280;37611;51.794;21.590;2023-03-26T19:18:24;98581.14;;;6.39;100.00
51526;BME280;37611;51.794;21.590;2023-03-26T19:22:27;98577.30;;;6.39;100.00
51526;BME280;37611;51.794;21.590;2023-03-26T19:26:32;98574.20;;;6.37;100.00
51526;BME280;37611;51.794;21.590;2023-03-26T19:30:38;98568.43;;;6.31;100.00
51526;BME280;37611;51.794;21.590;2023-03-26T19:34:44;98567.89;;;6.23;100.00
51526;BME280;37611;51.794;21.590;2023-03-26T19:42:48;98551.08;;;6.16;100.00
51526;BME280;37611;51.794;21.590;2023-03-26T19:46:51;98553.98;;;6.11;100.00
51526;BME280;37611;51.794;21.590;2023-03-26T19:51:03;98550.73;;;6.10;100.00
51526;BME280;37611;51.794;21.590;2023-03-26T19:55:16;98554.27;;;6.07;100.00
51526;BME280;37611;51.794;21.590;2023-03-26T19:59:20;98549.52;;;6.02;100.00
51526;BME280;37611;51.794;21.590;2023-03-26T20:03:35;98547.48;;;5.99;100.00
51526;BME280;37611;51.794;21.590;2023-03-26T20:07:38;98546.48;;;5.93;100.00
51526;BME280;37611;51.794;21.590;2023-03-26T20:11:39;98551.95;;;5.87;100.00
51526;BME280;37611;51.794;21.590;2023-03-26T20:15:51;98548.41;;;5.79;100.00
51526;BME280;37611;51.794;21.590;2023-03-26T20:19:53;98550.69;;;5.72;100.00
51526;BME280;37611;51.794;21.590;2023-03-26T20:23:55;98545.65;;;5.67;100.00
51526;BME280;37611;51.794;21.590;2023-03-26T20:27:57;98545.36;;;5.60;100.00
51526;BME280;37611;51.794;21.590;2023-03-26T20:31:59;98544.14;;;5.51;100.00
51526;BME280;37611;51.794;21.590;2023-03-26T20:36:01;98541.75;;;5.37;100.00
51526;BME280;37611;51.794;21.590;2023-03-26T20:40:05;98544.00;;;5.20;100.00
51526;BME280;37611;51.794;21.590;2023-03-26T20:44:11;98547.13;;;5.03;100.00
51526;BME280;37611;51.794;21.590;2023-03-26T20:48:15;98545.24;;;4.95;100.00
51526;BME280;37611;51.794;21.590;2023-03-26T20:52:17;98547.87;;;4.90;100.00
51526;BME280;37611;51.794;21.590;2023-03-26T20:56:19;98545.14;;;4.81;100.00
51526;BME280;37611;51.794;21.590;2023-03-26T21:00:22;98544.50;;;4.66;100.00
51526;BME280;37611;51.794;21.590;2023-03-26T21:04:27;98537.57;;;4.50;100.00
51526;BME280;37611;51.794;21.590;2023-03-26T21:08:30;98540.29;;;4.45;100.00
51526;BME280;37611;51.794;21.590;2023-03-26T21:12:58;98542.80;;;4.39;100.00
51526;BME280;37611;51.794;21.590;2023-03-26T21:17:02;98541.48;;;4.40;100.00
51526;BME280;37611;51.794;21.590;2023-03-26T21:21:30;98544.94;;;4.36;100.00
51526;BME280;37611;51.794;21.590;2023-03-26T21:26:17;98545.96;;;4.29;100.00
51526;BME280;37611;51.794;21.590;2023-03-26T21:30:21;98549.50;;;4.23;100.00
51526;BME280;37611;51.794;21.590;2023-03-26T21:34:23;98545.30;;;4.13;100.00
51526;BME280;37611;51.794;21.590;2023-03-26T21:38:26;98535.84;;;4.07;100.00
51526;BME280;37611;51.794;21.590;2023-03-26T21:42:28;98529.23;;;4.07;100.00
51526;BME280;37611;51.794;21.590;2023-03-26T21:46:31;98526.33;;;4.05;100.00
51526;BME280;37611;51.794;21.590;2023-03-26T21:50:33;98530.29;;;4.02;100.00
51526;BME280;37611;51.794;21.590;2023-03-26T21:54:35;98525.20;;;3.97;100.00
51526;BME280;37611;51.794;21.590;2023-03-26T21:58:43;98521.79;;;3.92;100.00
51526;BME280;37611;51.794;21.590;2023-03-26T22:11:09;98510.67;;;3.71;100.00
51526;BME280;37611;51.794;21.590;2023-03-26T22:15:12;98508.94;;;3.73;100.00
51526;BME280;37611;51.794;21.590;2023-03-26T22:19:14;98510.16;;;3.67;100.00
51526;BME280;37611;51.794;21.590;2023-03-26T22:23:16;98505.85;;;3.61;100.00
51526;BME280;37611;51.794;21.590;2023-03-26T22:27:18;98507.81;;;3.57;100.00
51526;BME280;37611;51.794;21.590;2023-03-26T22:31:20;98518.77;;;3.46;100.00
51526;BME280;37611;51.794;21.590;2023-03-26T22:35:23;98520.11;;;3.31;100.00
51526;BME280;37611;51.794;21.590;2023-03-26T22:39:25;98516.30;;;3.26;100.00
51526;BME280;37611;51.794;21.590;2023-03-26T22:43:28;98509.49;;;3.26;100.00
51526;BME280;37611;51.794;21.590;2023-03-26T22:47:29;98502.61;;;3.30;100.00
51526;BME280;37611;51.794;21.590;2023-03-26T22:51:33;98492.46;;;3.33;100.00
51526;BME280;37611;51.794;21.590;2023-03-26T22:55:35;98487.57;;;3.33;100.00
51526;BME280;37611;51.794;21.590;2023-03-26T22:59:38;98486.27;;;3.34;100.00
51526;BME280;37611;51.794;21.590;2023-03-26T23:03:39;98481.35;;;3.35;100.00
51526;BME280;37611;51.794;21.590;2023-03-26T23:07:41;98476.55;;;3.33;100.00
51526;BME280;37611;51.794;21.590;2023-03-26T23:11:44;98469.70;;;3.36;100.00
51526;BME280;37611;51.794;21.590;2023-03-26T23:15:50;98467.32;;;3.35;100.00
51526;BME280;37611;51.794;21.590;2023-03-26T23:19:52;98464.15;;;3.30;100.00
51526;BME280;37611;51.794;21.590;2023-03-26T23:23:56;98468.98;;;3.29;100.00
51526;BME280;37611;51.794;21.590;2023-03-26T23:27:58;98469.48;;;3.23;100.00
51526;BME280;37611;51.794;21.590;2023-03-26T23:32:01;98470.81;;;3.20;100.00
51526;BME280;37611;51.794;21.590;2023-03-26T23:36:05;98470.27;;;3.20;100.00
51526;BME280;37611;51.794;21.590;2023-03-26T23:40:11;98474.64;;;3.24;100.00
51526;BME280;37611;51.794;21.590;2023-03-26T23:44:13;98470.69;;;3.25;100.00
51526;BME280;37611;51.794;21.590;2023-03-26T23:48:20;98477.20;;;3.22;100.00
51526;BME280;37611;51.794;21.590;2023-03-26T23:52:25;98480.44;;;3.15;100.00
51526;BME280;37611;51.794;21.590;2023-03-26T23:56:28;98479.23;;;3.13;100.00
